sensor_id;sensor_type;location;lat;lon;timestamp;P1;durP1;ratioP1;P2;durP2;ratioP2
19854;SDS011;10088;47.946;2.532;2022-09-19T00:00:26;3.97;;;0.90;;
19854;SDS011;10088;47.946;2.532;2022-09-19T00:02:52;1.83;;;1.10;;
19854;SDS011;10088;47.946;2.532;2022-09-19T00:05:18;1.20;;;1.00;;
19854;SDS011;10088;47.946;2.532;2022-09-19T00:07:46;3.87;;;1.30;;
19854;SDS011;10088;47.946;2.532;2022-09-19T00:10:11;5.50;;;1.40;;
19854;SDS011;10088;47.946;2.532;2022-09-19T00:12:37;2.30;;;1.17;;
19854;SDS011;10088;47.946;2.532;2022-09-19T00:15:03;4.47;;;2.40;;
19854;SDS011;10088;47.946;2.532;2022-09-19T00:17:28;1.90;;;1.20;;
19854;SDS011;10088;47.946;2.532;2022-09-19T00:19:53;1.73;;;1.30;;
19854;SDS011;10088;47.946;2.532;2022-09-19T00:22:19;2.90;;;1.13;;
19854;SDS011;10088;47.946;2.532;2022-09-19T00:24:44;3.30;;;1.30;;
19854;SDS011;10088;47.946;2.532;2022-09-19T00:27:19;2.60;;;1.20;;
19854;SDS011;10088;47.946;2.532;2022-09-19T00:29:44;1.43;;;1.30;;
19854;SDS011;10088;47.946;2.532;2022-09-19T00:32:11;5.80;;;1.63;;
19854;SDS011;10088;47.946;2.532;2022-09-19T00:34:41;2.90;;;1.30;;
19854;SDS011;10088;47.946;2.532;2022-09-19T00:37:07;3.17;;;1.13;;
19854;SDS011;10088;47.946;2.532;2022-09-19T00:39:32;2.73;;;1.33;;
19854;SDS011;10088;47.946;2.532;2022-09-19T00:41:57;2.70;;;1.20;;
19854;SDS011;10088;47.946;2.532;2022-09-19T00:46:49;2.47;;;1.37;;
19854;SDS011;10088;47.946;2.532;2022-09-19T00:49:15;2.23;;;1.17;;
19854;SDS011;10088;47.946;2.532;2022-09-19T00:51:45;3.10;;;1.50;;
19854;SDS011;10088;47.946;2.532;2022-09-19T00:54:13;2.90;;;1.17;;
19854;SDS011;10088;47.946;2.532;2022-09-19T00:56:40;1.50;;;1.30;;
19854;SDS011;10088;47.946;2.532;2022-09-19T00:59:07;3.10;;;1.33;;
19854;SDS011;10088;47.946;2.532;2022-09-19T01:01:33;1.83;;;1.40;;
19854;SDS011;10088;47.946;2.532;2022-09-19T01:03:58;2.33;;;1.50;;
19854;SDS011;10088;47.946;2.532;2022-09-19T01:12:12;3.37;;;1.20;;
19854;SDS011;10088;47.946;2.532;2022-09-19T01:14:54;3.40;;;1.70;;
19854;SDS011;10088;47.946;2.532;2022-09-19T01:17:30;1.57;;;1.47;;
19854;SDS011;10088;47.946;2.532;2022-09-19T01:25:13;2.77;;;1.50;;
19854;SDS011;10088;47.946;2.532;2022-09-19T01:28:07;5.03;;;1.90;;
19854;SDS011;10088;47.946;2.532;2022-09-19T01:30:37;2.40;;;1.97;;
19854;SDS011;10088;47.946;2.532;2022-09-19T01:33:09;2.80;;;1.83;;
19854;SDS011;10088;47.946;2.532;2022-09-19T01:35:36;5.87;;;2.07;;
19854;SDS011;10088;47.946;2.532;2022-09-19T01:38:04;2.90;;;1.97;;
19854;SDS011;10088;47.946;2.532;2022-09-19T01:40:32;5.80;;;2.10;;
19854;SDS011;10088;47.946;2.532;2022-09-19T01:42:58;5.70;;;2.00;;
19854;SDS011;10088;47.946;2.532;2022-09-19T01:48:00;7.90;;;1.70;;
19854;SDS011;10088;47.946;2.532;2022-09-19T01:50:31;4.60;;;1.90;;
19854;SDS011;10088;47.946;2.532;2022-09-19T02:00:20;5.63;;;1.97;;
19854;SDS011;10088;47.946;2.532;2022-09-19T02:03:07;2.77;;;1.70;;
19854;SDS011;10088;47.946;2.532;2022-09-19T02:08:33;3.37;;;1.70;;
19854;SDS011;10088;47.946;2.532;2022-09-19T02:11:04;3.67;;;2.20;;
19854;SDS011;10088;47.946;2.532;2022-09-19T02:13:30;3.47;;;1.80;;
19854;SDS011;10088;47.946;2.532;2022-09-19T02:16:06;3.10;;;1.73;;
19854;SDS011;10088;47.946;2.532;2022-09-19T02:21:08;2.83;;;1.63;;
19854;SDS011;10088;47.946;2.532;2022-09-19T02:23:37;2.73;;;2.10;;
19854;SDS011;10088;47.946;2.532;2022-09-19T02:26:04;6.63;;;2.07;;
19854;SDS011;10088;47.946;2.532;2022-09-19T02:28:37;2.83;;;1.80;;
19854;SDS011;10088;47.946;2.532;2022-09-19T02:31:04;3.07;;;1.70;;
19854;SDS011;10088;47.946;2.532;2022-09-19T02:33:30;4.13;;;1.50;;
19854;SDS011;10088;47.946;2.532;2022-09-19T02:38:34;2.77;;;2.07;;
19854;SDS011;10088;47.946;2.532;2022-09-19T02:41:06;5.03;;;2.07;;
19854;SDS011;10088;47.946;2.532;2022-09-19T02:43:37;3.67;;;2.40;;
19854;SDS011;10088;47.946;2.532;2022-09-19T02:46:05;1.90;;;1.77;;
19854;SDS011;10088;47.946;2.532;2022-09-19T02:48:43;2.07;;;1.87;;
19854;SDS011;10088;47.946;2.532;2022-09-19T02:51:15;3.73;;;2.07;;
19854;SDS011;10088;47.946;2.532;2022-09-19T02:53:50;3.90;;;1.70;;
19854;SDS011;10088;47.946;2.532;2022-09-19T02:56:18;6.27;;;1.60;;
19854;SDS011;10088;47.946;2.532;2022-09-19T02:58:49;3.20;;;1.80;;
19854;SDS011;10088;47.946;2.532;2022-09-19T03:01:18;4.13;;;2.00;;
19854;SDS011;10088;47.946;2.532;2022-09-19T03:03:49;4.73;;;2.00;;
19854;SDS011;10088;47.946;2.532;2022-09-19T03:06:36;1.87;;;1.63;;
19854;SDS011;10088;47.946;2.532;2022-09-19T03:09:02;3.23;;;2.57;;
19854;SDS011;10088;47.946;2.532;2022-09-19T03:11:29;2.93;;;1.83;;
19854;SDS011;10088;47.946;2.532;2022-09-19T03:13:56;3.80;;;1.60;;
19854;SDS011;10088;47.946;2.532;2022-09-19T03:16:23;5.83;;;1.93;;
19854;SDS011;10088;47.946;2.532;2022-09-19T03:18:50;3.10;;;1.70;;
19854;SDS011;10088;47.946;2.532;2022-09-19T03:21:21;5.40;;;1.90;;
19854;SDS011;10088;47.946;2.532;2022-09-19T03:23:50;3.40;;;1.80;;
19854;SDS011;10088;47.946;2.532;2022-09-19T03:26:20;4.43;;;1.97;;
19854;SDS011;10088;47.946;2.532;2022-09-19T03:28:45;3.63;;;1.97;;
19854;SDS011;10088;47.946;2.532;2022-09-19T03:31:11;1.83;;;1.60;;
19854;SDS011;10088;47.946;2.532;2022-09-19T03:33:36;3.10;;;1.63;;
19854;SDS011;10088;47.946;2.532;2022-09-19T03:36:04;1.77;;;1.60;;
19854;SDS011;10088;47.946;2.532;2022-09-19T03:38:36;3.07;;;1.57;;
19854;SDS011;10088;47.946;2.532;2022-09-19T03:41:02;1.93;;;1.77;;
19854;SDS011;10088;47.946;2.532;2022-09-19T03:43:27;4.17;;;1.60;;
19854;SDS011;10088;47.946;2.532;2022-09-19T03:45:54;2.97;;;1.90;;
19854;SDS011;10088;47.946;2.532;2022-09-19T03:48:20;5.67;;;1.70;;
19854;SDS011;10088;47.946;2.532;2022-09-19T03:50:46;3.97;;;1.63;;
19854;SDS011;10088;47.946;2.532;2022-09-19T03:53:12;3.87;;;1.60;;
19854;SDS011;10088;47.946;2.532;2022-09-19T03:55:38;4.47;;;1.40;;
19854;SDS011;10088;47.946;2.532;2022-09-19T03:58:06;1.47;;;1.23;;
19854;SDS011;10088;47.946;2.532;2022-09-19T04:00:31;2.23;;;1.53;;
19854;SDS011;10088;47.946;2.532;2022-09-19T04:02:56;2.23;;;1.70;;
19854;SDS011;10088;47.946;2.532;2022-09-19T04:05:21;6.33;;;1.80;;
19854;SDS011;10088;47.946;2.532;2022-09-19T04:07:47;2.43;;;1.70;;
19854;SDS011;10088;47.946;2.532;2022-09-19T04:10:12;4.93;;;1.70;;
19854;SDS011;10088;47.946;2.532;2022-09-19T04:12:38;5.37;;;1.93;;
19854;SDS011;10088;47.946;2.532;2022-09-19T04:15:03;2.93;;;1.50;;
19854;SDS011;10088;47.946;2.532;2022-09-19T04:17:30;2.60;;;1.63;;
19854;SDS011;10088;47.946;2.532;2022-09-19T04:19:55;2.43;;;1.90;;
19854;SDS011;10088;47.946;2.532;2022-09-19T04:22:21;3.67;;;1.80;;
19854;SDS011;10088;47.946;2.532;2022-09-19T04:24:47;4.17;;;2.00;;
19854;SDS011;10088;47.946;2.532;2022-09-19T04:27:12;4.47;;;2.50;;
19854;SDS011;10088;47.946;2.532;2022-09-19T04:29:38;4.30;;;1.80;;
19854;SDS011;10088;47.946;2.532;2022-09-19T04:32:04;4.43;;;2.13;;
19854;SDS011;10088;47.946;2.532;2022-09-19T04:34:29;3.27;;;1.73;;
19854;SDS011;10088;47.946;2.532;2022-09-19T04:36:55;4.03;;;1.87;;
19854;SDS011;10088;47.946;2.532;2022-09-19T04:39:22;3.00;;;2.20;;
19854;SDS011;10088;47.946;2.532;2022-09-19T04:41:47;4.33;;;2.47;;
19854;SDS011;10088;47.946;2.532;2022-09-19T04:44:18;4.60;;;2.07;;
19854;SDS011;10088;47.946;2.532;2022-09-19T04:46:43;3.73;;;2.10;;
19854;SDS011;10088;47.946;2.532;2022-09-19T04:49:10;3.47;;;2.00;;
19854;SDS011;10088;47.946;2.532;2022-09-19T04:51:37;5.23;;;1.67;;
19854;SDS011;10088;47.946;2.532;2022-09-19T04:54:02;3.17;;;1.83;;
19854;SDS011;10088;47.946;2.532;2022-09-19T04:56:27;4.70;;;2.10;;
19854;SDS011;10088;47.946;2.532;2022-09-19T04:58:53;3.23;;;2.40;;
19854;SDS011;10088;47.946;2.532;2022-09-19T05:01:18;2.77;;;1.93;;
19854;SDS011;10088;47.946;2.532;2022-09-19T05:03:43;3.43;;;1.70;;
19854;SDS011;10088;47.946;2.532;2022-09-19T05:06:09;2.43;;;1.90;;
19854;SDS011;10088;47.946;2.532;2022-09-19T05:08:34;3.13;;;1.83;;
19854;SDS011;10088;47.946;2.532;2022-09-19T05:11:01;3.80;;;1.70;;
19854;SDS011;10088;47.946;2.532;2022-09-19T05:13:28;3.97;;;1.90;;
19854;SDS011;10088;47.946;2.532;2022-09-19T05:15:54;4.73;;;2.10;;
19854;SDS011;10088;47.946;2.532;2022-09-19T05:18:20;3.23;;;1.90;;
19854;SDS011;10088;47.946;2.532;2022-09-19T05:20:50;3.63;;;2.37;;
19854;SDS011;10088;47.946;2.532;2022-09-19T05:23:17;2.27;;;2.07;;
19854;SDS011;10088;47.946;2.532;2022-09-19T05:25:42;2.57;;;1.87;;
19854;SDS011;10088;47.946;2.532;2022-09-19T05:28:08;3.30;;;1.87;;
19854;SDS011;10088;47.946;2.532;2022-09-19T05:30:35;2.63;;;1.83;;
19854;SDS011;10088;47.946;2.532;2022-09-19T05:33:01;2.63;;;2.00;;
19854;SDS011;10088;47.946;2.532;2022-09-19T05:35:27;3.07;;;2.00;;
19854;SDS011;10088;47.946;2.532;2022-09-19T05:37:52;1.90;;;1.70;;
19854;SDS011;10088;47.946;2.532;2022-09-19T05:40:18;4.73;;;1.87;;
19854;SDS011;10088;47.946;2.532;2022-09-19T05:42:43;1.97;;;1.87;;
19854;SDS011;10088;47.946;2.532;2022-09-19T05:45:12;2.30;;;2.10;;
19854;SDS011;10088;47.946;2.532;2022-09-19T05:47:37;2.60;;;1.80;;
19854;SDS011;10088;47.946;2.532;2022-09-19T05:50:11;2.80;;;1.80;;
19854;SDS011;10088;47.946;2.532;2022-09-19T05:52:37;5.70;;;2.17;;
19854;SDS011;10088;47.946;2.532;2022-09-19T05:55:22;2.37;;;2.17;;
19854;SDS011;10088;47.946;2.532;2022-09-19T05:57:51;7.07;;;2.30;;
19854;SDS011;10088;47.946;2.532;2022-09-19T06:00:16;3.00;;;2.40;;
19854;SDS011;10088;47.946;2.532;2022-09-19T06:02:42;4.93;;;1.93;;
19854;SDS011;10088;47.946;2.532;2022-09-19T06:05:07;3.33;;;2.13;;
19854;SDS011;10088;47.946;2.532;2022-09-19T06:07:32;2.40;;;2.17;;
19854;SDS011;10088;47.946;2.532;2022-09-19T06:09:57;2.83;;;2.47;;
19854;SDS011;10088;47.946;2.532;2022-09-19T06:12:23;3.17;;;2.40;;
19854;SDS011;10088;47.946;2.532;2022-09-19T06:14:49;3.93;;;1.93;;
19854;SDS011;10088;47.946;2.532;2022-09-19T06:17:14;2.07;;;1.87;;
19854;SDS011;10088;47.946;2.532;2022-09-19T06:19:41;4.33;;;2.27;;
19854;SDS011;10088;47.946;2.532;2022-09-19T06:22:06;3.37;;;2.13;;
19854;SDS011;10088;47.946;2.532;2022-09-19T06:24:32;5.57;;;2.40;;
19854;SDS011;10088;47.946;2.532;2022-09-19T06:26:57;4.73;;;2.40;;
19854;SDS011;10088;47.946;2.532;2022-09-19T06:29:22;4.33;;;2.30;;
19854;SDS011;10088;47.946;2.532;2022-09-19T06:31:48;4.60;;;2.20;;
19854;SDS011;10088;47.946;2.532;2022-09-19T06:34:14;3.53;;;2.00;;
19854;SDS011;10088;47.946;2.532;2022-09-19T06:36:39;6.40;;;2.30;;
19854;SDS011;10088;47.946;2.532;2022-09-19T06:39:08;4.17;;;2.07;;
19854;SDS011;10088;47.946;2.532;2022-09-19T06:41:33;4.87;;;1.90;;
19854;SDS011;10088;47.946;2.532;2022-09-19T06:43:59;3.83;;;2.60;;
19854;SDS011;10088;47.946;2.532;2022-09-19T06:46:26;3.97;;;2.10;;
19854;SDS011;10088;47.946;2.532;2022-09-19T06:48:51;3.83;;;2.60;;
19854;SDS011;10088;47.946;2.532;2022-09-19T06:51:16;5.80;;;2.70;;
19854;SDS011;10088;47.946;2.532;2022-09-19T06:53:42;9.17;;;2.53;;
19854;SDS011;10088;47.946;2.532;2022-09-19T06:56:07;2.57;;;2.30;;
19854;SDS011;10088;47.946;2.532;2022-09-19T06:58:32;3.20;;;2.40;;
19854;SDS011;10088;47.946;2.532;2022-09-19T07:00:59;3.90;;;2.30;;
19854;SDS011;10088;47.946;2.532;2022-09-19T07:03:25;2.60;;;2.17;;
19854;SDS011;10088;47.946;2.532;2022-09-19T07:05:50;5.60;;;2.17;;
19854;SDS011;10088;47.946;2.532;2022-09-19T07:08:16;3.63;;;1.87;;
19854;SDS011;10088;47.946;2.532;2022-09-19T07:10:42;2.30;;;1.57;;
19854;SDS011;10088;47.946;2.532;2022-09-19T07:13:08;2.87;;;1.60;;
19854;SDS011;10088;47.946;2.532;2022-09-19T07:15:35;3.63;;;1.60;;
19854;SDS011;10088;47.946;2.532;2022-09-19T07:18:01;2.87;;;1.60;;
19854;SDS011;10088;47.946;2.532;2022-09-19T07:20:27;2.20;;;1.43;;
19854;SDS011;10088;47.946;2.532;2022-09-19T07:25:30;2.03;;;1.60;;
19854;SDS011;10088;47.946;2.532;2022-09-19T07:27:57;2.13;;;1.47;;
19854;SDS011;10088;47.946;2.532;2022-09-19T07:30:22;2.37;;;1.50;;
19854;SDS011;10088;47.946;2.532;2022-09-19T07:32:48;2.87;;;1.43;;
19854;SDS011;10088;47.946;2.532;2022-09-19T07:35:13;2.20;;;1.37;;
19854;SDS011;10088;47.946;2.532;2022-09-19T07:37:38;3.33;;;1.40;;
19854;SDS011;10088;47.946;2.532;2022-09-19T07:40:05;5.30;;;1.33;;
19854;SDS011;10088;47.946;2.532;2022-09-19T07:42:30;3.40;;;1.40;;
19854;SDS011;10088;47.946;2.532;2022-09-19T07:44:55;2.80;;;1.63;;
19854;SDS011;10088;47.946;2.532;2022-09-19T07:47:21;3.53;;;1.53;;
19854;SDS011;10088;47.946;2.532;2022-09-19T07:49:52;3.63;;;1.33;;
19854;SDS011;10088;47.946;2.532;2022-09-19T07:52:19;4.40;;;1.33;;
19854;SDS011;10088;47.946;2.532;2022-09-19T07:54:45;2.30;;;1.20;;
19854;SDS011;10088;47.946;2.532;2022-09-19T07:57:10;2.53;;;1.40;;
19854;SDS011;10088;47.946;2.532;2022-09-19T07:59:35;3.13;;;1.40;;
19854;SDS011;10088;47.946;2.532;2022-09-19T08:02:00;2.90;;;1.13;;
19854;SDS011;10088;47.946;2.532;2022-09-19T08:04:26;4.37;;;1.50;;
19854;SDS011;10088;47.946;2.532;2022-09-19T08:06:52;3.23;;;1.20;;
19854;SDS011;10088;47.946;2.532;2022-09-19T08:09:18;2.37;;;1.07;;
19854;SDS011;10088;47.946;2.532;2022-09-19T08:11:43;4.43;;;1.20;;
19854;SDS011;10088;47.946;2.532;2022-09-19T08:14:09;2.63;;;1.20;;
19854;SDS011;10088;47.946;2.532;2022-09-19T08:16:34;3.40;;;1.30;;
19854;SDS011;10088;47.946;2.532;2022-09-19T08:18:59;2.20;;;1.10;;
19854;SDS011;10088;47.946;2.532;2022-09-19T08:21:25;3.43;;;1.00;;
19854;SDS011;10088;47.946;2.532;2022-09-19T08:23:50;3.43;;;1.23;;
19854;SDS011;10088;47.946;2.532;2022-09-19T08:26:16;4.10;;;1.10;;
19854;SDS011;10088;47.946;2.532;2022-09-19T08:28:42;4.00;;;1.10;;
19854;SDS011;10088;47.946;2.532;2022-09-19T08:31:07;3.63;;;1.37;;
19854;SDS011;10088;47.946;2.532;2022-09-19T08:33:32;5.40;;;1.23;;
19854;SDS011;10088;47.946;2.532;2022-09-19T08:35:58;2.33;;;0.83;;
19854;SDS011;10088;47.946;2.532;2022-09-19T08:38:24;2.93;;;1.03;;
19854;SDS011;10088;47.946;2.532;2022-09-19T08:43:38;2.77;;;0.90;;
19854;SDS011;10088;47.946;2.532;2022-09-19T08:49:11;4.60;;;1.23;;
19854;SDS011;10088;47.946;2.532;2022-09-19T08:54:23;6.43;;;1.13;;
19854;SDS011;10088;47.946;2.532;2022-09-19T08:56:49;2.87;;;0.90;;
19854;SDS011;10088;47.946;2.532;2022-09-19T08:59:22;4.57;;;1.23;;
19854;SDS011;10088;47.946;2.532;2022-09-19T09:01:48;4.87;;;1.00;;
19854;SDS011;10088;47.946;2.532;2022-09-19T09:04:24;5.00;;;0.90;;
19854;SDS011;10088;47.946;2.532;2022-09-19T09:12:25;5.83;;;1.20;;
19854;SDS011;10088;47.946;2.532;2022-09-19T09:23:18;4.37;;;1.13;;
19854;SDS011;10088;47.946;2.532;2022-09-19T09:25:48;6.10;;;1.10;;
19854;SDS011;10088;47.946;2.532;2022-09-19T09:30:43;5.63;;;1.07;;
19854;SDS011;10088;47.946;2.532;2022-09-19T09:33:16;6.20;;;1.07;;
19854;SDS011;10088;47.946;2.532;2022-09-19T09:36:09;4.60;;;0.90;;
19854;SDS011;10088;47.946;2.532;2022-09-19T09:38:32;3.90;;;0.87;;
19854;SDS011;10088;47.946;2.532;2022-09-19T09:41:06;3.97;;;0.97;;
19854;SDS011;10088;47.946;2.532;2022-09-19T09:47:16;3.60;;;1.03;;
19854;SDS011;10088;47.946;2.532;2022-09-19T09:49:27;9.43;;;1.73;;
19854;SDS011;10088;47.946;2.532;2022-09-19T09:54:33;3.40;;;0.90;;
19854;SDS011;10088;47.946;2.532;2022-09-19T10:00:12;3.63;;;1.10;;
19854;SDS011;10088;47.946;2.532;2022-09-19T10:05:53;3.83;;;1.07;;
19854;SDS011;10088;47.946;2.532;2022-09-19T10:08:21;3.77;;;0.93;;
19854;SDS011;10088;47.946;2.532;2022-09-19T10:13:40;3.37;;;0.90;;
19854;SDS011;10088;47.946;2.532;2022-09-19T10:16:09;4.97;;;1.10;;
19854;SDS011;10088;47.946;2.532;2022-09-19T10:19:00;7.47;;;1.27;;
19854;SDS011;10088;47.946;2.532;2022-09-19T10:21:29;2.60;;;0.90;;
19854;SDS011;10088;47.946;2.532;2022-09-19T10:23:55;2.30;;;0.80;;
19854;SDS011;10088;47.946;2.532;2022-09-19T10:26:25;6.40;;;1.47;;
19854;SDS011;10088;47.946;2.532;2022-09-19T10:28:52;5.80;;;1.20;;
19854;SDS011;10088;47.946;2.532;2022-09-19T10:31:22;5.73;;;0.90;;
19854;SDS011;10088;47.946;2.532;2022-09-19T10:33:48;3.33;;;1.00;;
19854;SDS011;10088;47.946;2.532;2022-09-19T10:36:24;4.30;;;0.67;;
19854;SDS011;10088;47.946;2.532;2022-09-19T10:38:57;5.97;;;1.07;;
19854;SDS011;10088;47.946;2.532;2022-09-19T10:41:25;2.43;;;0.80;;
19854;SDS011;10088;47.946;2.532;2022-09-19T10:43:55;3.37;;;0.90;;
19854;SDS011;10088;47.946;2.532;2022-09-19T10:46:29;4.13;;;0.73;;
19854;SDS011;10088;47.946;2.532;2022-09-19T10:49:00;3.37;;;1.03;;
19854;SDS011;10088;47.946;2.532;2022-09-19T10:51:41;3.93;;;1.07;;
19854;SDS011;10088;47.946;2.532;2022-09-19T10:54:09;2.83;;;1.00;;
19854;SDS011;10088;47.946;2.532;2022-09-19T10:56:36;2.67;;;0.90;;
19854;SDS011;10088;47.946;2.532;2022-09-19T11:01:35;3.00;;;0.57;;
19854;SDS011;10088;47.946;2.532;2022-09-19T11:04:02;2.97;;;0.70;;
19854;SDS011;10088;47.946;2.532;2022-09-19T11:06:29;4.63;;;0.80;;
19854;SDS011;10088;47.946;2.532;2022-09-19T11:08:55;3.30;;;0.60;;
19854;SDS011;10088;47.946;2.532;2022-09-19T11:11:21;2.53;;;0.70;;
19854;SDS011;10088;47.946;2.532;2022-09-19T11:16:35;3.37;;;0.67;;
19854;SDS011;10088;47.946;2.532;2022-09-19T11:21:45;1.83;;;0.87;;
19854;SDS011;10088;47.946;2.532;2022-09-19T11:30:28;2.60;;;1.07;;
19854;SDS011;10088;47.946;2.532;2022-09-19T11:37:35;3.73;;;0.70;;
19854;SDS011;10088;47.946;2.532;2022-09-19T11:40:14;1.90;;;0.83;;
19854;SDS011;10088;47.946;2.532;2022-09-19T11:45:30;2.83;;;0.73;;
19854;SDS011;10088;47.946;2.532;2022-09-19T11:58:18;5.80;;;0.83;;
19854;SDS011;10088;47.946;2.532;2022-09-19T12:00:52;3.87;;;1.40;;
19854;SDS011;10088;47.946;2.532;2022-09-19T12:16:08;2.43;;;0.93;;
19854;SDS011;10088;47.946;2.532;2022-09-19T12:18:49;2.07;;;0.70;;
19854;SDS011;10088;47.946;2.532;2022-09-19T12:21:19;3.63;;;0.80;;
19854;SDS011;10088;47.946;2.532;2022-09-19T12:23:50;4.07;;;0.63;;
19854;SDS011;10088;47.946;2.532;2022-09-19T12:32:14;3.47;;;0.80;;
19854;SDS011;10088;47.946;2.532;2022-09-19T12:34:45;3.53;;;0.90;;
19854;SDS011;10088;47.946;2.532;2022-09-19T12:37:18;3.13;;;0.80;;
19854;SDS011;10088;47.946;2.532;2022-09-19T12:39:47;3.00;;;0.90;;
19854;SDS011;10088;47.946;2.532;2022-09-19T12:42:27;2.63;;;0.80;;
19854;SDS011;10088;47.946;2.532;2022-09-19T12:47:39;1.20;;;0.40;;
19854;SDS011;10088;47.946;2.532;2022-09-19T12:50:12;2.50;;;0.90;;
19854;SDS011;10088;47.946;2.532;2022-09-19T12:52:41;1.17;;;0.50;;
19854;SDS011;10088;47.946;2.532;2022-09-19T12:55:14;2.57;;;0.80;;
19854;SDS011;10088;47.946;2.532;2022-09-19T12:57:54;3.70;;;1.00;;
19854;SDS011;10088;47.946;2.532;2022-09-19T13:00:21;5.10;;;1.13;;
19854;SDS011;10088;47.946;2.532;2022-09-19T13:02:48;1.63;;;0.80;;
19854;SDS011;10088;47.946;2.532;2022-09-19T13:05:30;2.40;;;0.67;;
19854;SDS011;10088;47.946;2.532;2022-09-19T13:08:05;3.30;;;1.00;;
19854;SDS011;10088;47.946;2.532;2022-09-19T13:18:15;2.57;;;0.93;;
19854;SDS011;10088;47.946;2.532;2022-09-19T13:20:59;3.53;;;1.00;;
19854;SDS011;10088;47.946;2.532;2022-09-19T13:23:44;4.47;;;0.77;;
19854;SDS011;10088;47.946;2.532;2022-09-19T13:31:11;4.40;;;0.83;;
19854;SDS011;10088;47.946;2.532;2022-09-19T13:36:16;5.07;;;0.93;;
19854;SDS011;10088;47.946;2.532;2022-09-19T13:38:46;3.33;;;0.70;;
19854;SDS011;10088;47.946;2.532;2022-09-19T13:41:57;2.87;;;0.80;;
19854;SDS011;10088;47.946;2.532;2022-09-19T13:49:10;3.27;;;0.77;;
19854;SDS011;10088;47.946;2.532;2022-09-19T13:59:36;4.80;;;0.70;;
19854;SDS011;10088;47.946;2.532;2022-09-19T14:04:38;4.17;;;0.63;;
19854;SDS011;10088;47.946;2.532;2022-09-19T14:07:29;2.93;;;0.90;;
19854;SDS011;10088;47.946;2.532;2022-09-19T14:10:02;5.73;;;1.40;;
19854;SDS011;10088;47.946;2.532;2022-09-19T14:15:00;3.50;;;0.77;;
19854;SDS011;10088;47.946;2.532;2022-09-19T14:17:26;2.27;;;0.67;;
19854;SDS011;10088;47.946;2.532;2022-09-19T14:19:55;3.07;;;0.60;;
19854;SDS011;10088;47.946;2.532;2022-09-19T14:25:19;2.10;;;0.60;;
19854;SDS011;10088;47.946;2.532;2022-09-19T14:30:39;3.27;;;0.73;;
19854;SDS011;10088;47.946;2.532;2022-09-19T14:35:52;3.37;;;0.80;;
19854;SDS011;10088;47.946;2.532;2022-09-19T14:38:23;4.60;;;0.80;;
19854;SDS011;10088;47.946;2.532;2022-09-19T14:48:37;2.27;;;1.00;;
19854;SDS011;10088;47.946;2.532;2022-09-19T14:53:49;3.17;;;0.77;;
19854;SDS011;10088;47.946;2.532;2022-09-19T14:56:17;4.53;;;0.90;;
19854;SDS011;10088;47.946;2.532;2022-09-19T14:58:48;5.40;;;1.10;;
19854;SDS011;10088;47.946;2.532;2022-09-19T15:01:33;2.10;;;0.67;;
19854;SDS011;10088;47.946;2.532;2022-09-19T15:04:08;2.83;;;0.70;;
19854;SDS011;10088;47.946;2.532;2022-09-19T15:06:35;7.33;;;0.87;;
19854;SDS011;10088;47.946;2.532;2022-09-19T15:09:00;2.93;;;0.50;;
19854;SDS011;10088;47.946;2.532;2022-09-19T15:11:26;2.93;;;0.83;;
19854;SDS011;10088;47.946;2.532;2022-09-19T15:13:52;1.70;;;0.60;;
19854;SDS011;10088;47.946;2.532;2022-09-19T15:16:22;2.90;;;1.00;;
19854;SDS011;10088;47.946;2.532;2022-09-19T15:18:51;3.43;;;1.17;;
19854;SDS011;10088;47.946;2.532;2022-09-19T15:21:20;1.87;;;0.67;;
19854;SDS011;10088;47.946;2.532;2022-09-19T15:23:47;2.77;;;0.90;;
19854;SDS011;10088;47.946;2.532;2022-09-19T15:26:17;6.23;;;0.80;;
19854;SDS011;10088;47.946;2.532;2022-09-19T15:29:13;2.03;;;0.60;;
19854;SDS011;10088;47.946;2.532;2022-09-19T15:31:42;1.63;;;0.60;;
19854;SDS011;10088;47.946;2.532;2022-09-19T15:34:17;6.20;;;0.80;;
19854;SDS011;10088;47.946;2.532;2022-09-19T15:36:43;2.50;;;0.70;;
19854;SDS011;10088;47.946;2.532;2022-09-19T15:39:13;4.10;;;0.80;;
19854;SDS011;10088;47.946;2.532;2022-09-19T15:41:40;8.87;;;1.00;;
19854;SDS011;10088;47.946;2.532;2022-09-19T15:44:05;2.10;;;0.70;;
19854;SDS011;10088;47.946;2.532;2022-09-19T15:46:42;3.10;;;0.60;;
19854;SDS011;10088;47.946;2.532;2022-09-19T15:49:17;3.53;;;0.60;;
19854;SDS011;10088;47.946;2.532;2022-09-19T15:51:51;3.90;;;1.07;;
19854;SDS011;10088;47.946;2.532;2022-09-19T15:54:18;1.87;;;1.00;;
19854;SDS011;10088;47.946;2.532;2022-09-19T15:56:48;2.03;;;0.80;;
19854;SDS011;10088;47.946;2.532;2022-09-19T15:59:17;4.33;;;0.80;;
19854;SDS011;10088;47.946;2.532;2022-09-19T16:02:01;6.53;;;1.20;;
19854;SDS011;10088;47.946;2.532;2022-09-19T16:04:34;3.37;;;0.90;;
19854;SDS011;10088;47.946;2.532;2022-09-19T16:06:59;2.43;;;0.70;;
19854;SDS011;10088;47.946;2.532;2022-09-19T16:09:44;3.20;;;0.90;;
19854;SDS011;10088;47.946;2.532;2022-09-19T16:22:55;2.53;;;0.80;;
19854;SDS011;10088;47.946;2.532;2022-09-19T16:25:23;2.47;;;0.80;;
19854;SDS011;10088;47.946;2.532;2022-09-19T16:27:48;4.87;;;0.83;;
19854;SDS011;10088;47.946;2.532;2022-09-19T16:30:14;1.27;;;0.70;;
19854;SDS011;10088;47.946;2.532;2022-09-19T16:32:40;7.97;;;0.80;;
19854;SDS011;10088;47.946;2.532;2022-09-19T16:35:12;4.23;;;1.13;;
19854;SDS011;10088;47.946;2.532;2022-09-19T16:37:39;2.73;;;0.77;;
19854;SDS011;10088;47.946;2.532;2022-09-19T16:40:21;3.20;;;0.90;;
19854;SDS011;10088;47.946;2.532;2022-09-19T16:42:47;2.13;;;0.90;;
19854;SDS011;10088;47.946;2.532;2022-09-19T16:45:19;2.77;;;0.77;;
19854;SDS011;10088;47.946;2.532;2022-09-19T16:47:49;2.87;;;0.90;;
19854;SDS011;10088;47.946;2.532;2022-09-19T16:50:15;3.27;;;1.03;;
19854;SDS011;10088;47.946;2.532;2022-09-19T16:52:45;1.70;;;0.77;;
19854;SDS011;10088;47.946;2.532;2022-09-19T16:55:16;2.67;;;0.77;;
19854;SDS011;10088;47.946;2.532;2022-09-19T16:57:47;3.03;;;0.70;;
19854;SDS011;10088;47.946;2.532;2022-09-19T17:00:13;6.20;;;1.40;;
19854;SDS011;10088;47.946;2.532;2022-09-19T17:02:38;3.63;;;0.97;;
19854;SDS011;10088;47.946;2.532;2022-09-19T17:05:14;2.90;;;0.93;;
19854;SDS011;10088;47.946;2.532;2022-09-19T17:07:41;4.80;;;0.80;;
19854;SDS011;10088;47.946;2.532;2022-09-19T17:10:08;5.27;;;0.97;;
19854;SDS011;10088;47.946;2.532;2022-09-19T17:12:33;4.97;;;1.00;;
19854;SDS011;10088;47.946;2.532;2022-09-19T17:14:59;6.17;;;0.77;;
19854;SDS011;10088;47.946;2.532;2022-09-19T17:17:25;4.07;;;1.17;;
19854;SDS011;10088;47.946;2.532;2022-09-19T17:19:50;5.50;;;1.07;;
19854;SDS011;10088;47.946;2.532;2022-09-19T17:22:16;1.67;;;0.80;;
19854;SDS011;10088;47.946;2.532;2022-09-19T17:24:42;4.40;;;0.80;;
19854;SDS011;10088;47.946;2.532;2022-09-19T17:27:08;5.73;;;0.97;;
19854;SDS011;10088;47.946;2.532;2022-09-19T17:29:33;2.40;;;0.73;;
19854;SDS011;10088;47.946;2.532;2022-09-19T17:31:59;4.30;;;0.87;;
19854;SDS011;10088;47.946;2.532;2022-09-19T17:34:24;3.03;;;0.83;;
19854;SDS011;10088;47.946;2.532;2022-09-19T17:36:50;3.63;;;1.20;;
19854;SDS011;10088;47.946;2.532;2022-09-19T17:39:15;2.73;;;1.03;;
19854;SDS011;10088;47.946;2.532;2022-09-19T17:41:41;3.73;;;1.07;;
19854;SDS011;10088;47.946;2.532;2022-09-19T17:44:07;6.00;;;1.03;;
19854;SDS011;10088;47.946;2.532;2022-09-19T17:46:33;2.97;;;1.03;;
19854;SDS011;10088;47.946;2.532;2022-09-19T17:48:59;3.10;;;0.70;;
19854;SDS011;10088;47.946;2.532;2022-09-19T17:51:24;4.50;;;1.17;;
19854;SDS011;10088;47.946;2.532;2022-09-19T17:53:49;2.07;;;0.60;;
19854;SDS011;10088;47.946;2.532;2022-09-19T17:56:16;3.13;;;0.93;;
19854;SDS011;10088;47.946;2.532;2022-09-19T17:58:41;4.10;;;1.33;;
19854;SDS011;10088;47.946;2.532;2022-09-19T18:01:07;3.97;;;1.00;;
19854;SDS011;10088;47.946;2.532;2022-09-19T18:03:51;3.97;;;1.20;;
19854;SDS011;10088;47.946;2.532;2022-09-19T18:06:17;7.33;;;1.33;;